Time;durP1;ratioP1;P1;durP2;ratioP2;P2;SDS_P1;SDS_P2;PMS_P1;PMS_P2;Temp;Humidity;BMP_temperature;BMP_pressure;BME280_temperature;BME280_humidity;BME280_pressure;Samples;Min_cycle;Max_cycle;Signal;HPM_P1;HPM_P2
2022/09/14 00:01:00;;;;;;;;;;;25.00;47.90;;;;;;1575664;74;688;-68
2022/09/14 00:03:01;;;;;;;;;;;25.00;48.00;;;;;;1579559;74;767;-68
2022/09/14 00:05:03;;;;;;;;;;;25.00;47.90;;;;;;1584080;73;1142;-67
2022/09/14 00:07:05;;;;;;;;;;;25.00;47.90;;;;;;1574942;74;561;-68
2022/09/14 00:09:10;;;;;;;;;;;25.00;47.80;;;;;;1572854;74;736;-68
2022/09/14 00:11:12;;;;;;;;;;;25.00;47.80;;;;;;1566553;74;1639;-67
2022/09/14 00:13:14;;;;;;;;;;;25.00;47.90;;;;;;1572782;74;642;-68
2022/09/14 00:15:16;;;;;;;;;;;25.00;47.90;;;;;;1586573;73;1156;-69
2022/09/14 00:17:18;;;;;;;;;;;24.90;47.90;;;;;;1580774;74;1941;-67
2022/09/14 00:19:21;;;;;;;;;;;24.90;47.90;;;;;;1578271;74;730;-67
2022/09/14 00:21:23;;;;;;;;;;;24.90;48.00;;;;;;1572430;74;1009;-67
2022/09/14 00:23:25;;;;;;;;;;;24.90;48.00;;;;;;1579688;74;712;-66
2022/09/14 00:25:27;;;;;;;;;;;24.90;48.10;;;;;;1588780;73;1186;-67
2022/09/14 00:27:29;;;;;;;;;;;24.90;48.10;;;;;;1573949;74;910;-68
2022/09/14 00:29:32;;;;;;;;;;;24.90;48.10;;;;;;1588153;73;789;-68
2022/09/14 00:31:34;;;;;;;;;;;24.90;48.20;;;;;;1583568;74;673;-65
2022/09/14 00:33:37;;;;;;;;;;;24.90;48.10;;;;;;1571053;75;575;-64
2022/09/14 00:35:39;;;;;;;;;;;24.90;48.10;;;;;;1585857;73;1090;-65
2022/09/14 00:37:41;;;;;;;;;;;24.90;48.10;;;;;;1578168;74;1915;-64
2022/09/14 00:39:43;;;;;;;;;;;24.90;48.10;;;;;;1577103;74;771;-64
2022/09/14 00:41:46;;;;;;;;;;;24.90;48.10;;;;;;1586272;74;724;-64
2022/09/14 00:43:52;;;;;;;;;;;24.90;48.10;;;;;;1575322;73;1524;-64
2022/09/14 00:45:54;;;;;;;;;;;24.90;48.10;;;;;;1589109;73;1942;-64
2022/09/14 00:47:56;;;;;;;;;;;24.90;48.10;;;;;;1577290;74;796;-66
2022/09/14 00:49:59;;;;;;;;;;;24.80;48.00;;;;;;1584411;74;641;-64
2022/09/14 00:52:11;;;;;;;;;;;24.90;48.10;;;;;;1585705;74;702;-63
2022/09/14 00:54:13;;;;;;;;;;;24.90;48.10;;;;;;1583687;74;708;-65
2022/09/14 00:56:15;;;;;;;;;;;24.90;48.10;;;;;;1590046;73;1113;-66
2022/09/14 00:58:17;;;;;;;;;;;24.90;48.10;;;;;;1593604;73;1948;-64
2022/09/14 01:00:20;;;;;;;;;;;24.90;48.10;;;;;;1582883;74;779;-65
2022/09/14 01:02:22;;;;;;;;;;;24.90;48.10;;;;;;1583379;74;1905;-65
2022/09/14 01:04:25;;;;;;;;;;;24.90;48.10;;;;;;1586352;74;828;-65
2022/09/14 01:06:32;;;;;;;;;;;24.90;48.10;;;;;;1579841;73;1111;-65
2022/09/14 01:08:38;;;;;;;;;;;24.90;48.10;;;;;;1588471;74;810;-64
2022/09/14 01:10:45;;;;;;;;;;;24.90;48.00;;;;;;1589081;74;1718;-63
2022/09/14 01:12:57;;;;;;;;;;;24.80;48.00;;;;;;1582476;73;1895;-65
2022/09/14 01:15:00;;;;;;;;;;;24.90;48.00;;;;;;1587831;73;1923;-65
2022/09/14 01:17:04;;;;;;;;;;;24.90;48.10;;;;;;1579791;74;803;-64
2022/09/14 01:19:07;;;;;;;;;;;24.90;48.00;;;;;;1577321;74;2103;-64
2022/09/14 01:21:10;;;;;;;;;;;24.90;48.10;;;;;;1588426;74;1928;-64
2022/09/14 01:23:19;;;;;;;;;;;24.90;48.10;;;;;;1580517;74;723;-65
2022/09/14 01:25:23;;;;;;;;;;;24.90;48.10;;;;;;1589804;73;1192;-64
2022/09/14 01:27:31;;;;;;;;;;;24.90;48.10;;;;;;1593181;73;1889;-64
2022/09/14 01:29:34;;;;;;;;;;;24.90;48.10;;;;;;1587028;74;688;-64
2022/09/14 01:31:38;;;;;;;;;;;24.80;48.00;;;;;;1576280;74;699;-66
2022/09/14 01:33:41;;;;;;;;;;;24.90;48.20;;;;;;1582998;74;716;-65
2022/09/14 01:35:45;;;;;;;;;;;24.90;48.20;;;;;;1589844;73;1981;-66
2022/09/14 01:37:48;;;;;;;;;;;24.90;48.20;;;;;;1589712;74;1897;-63
2022/09/14 01:39:52;;;;;;;;;;;24.90;48.20;;;;;;1584324;74;1525;-65
2022/09/14 01:41:54;;;;;;;;;;;24.90;48.10;;;;;;1597142;73;1338;-65
2022/09/14 01:43:57;;;;;;;;;;;24.80;48.00;;;;;;1582926;74;695;-63
2022/09/14 01:46:00;;;;;;;;;;;24.90;48.10;;;;;;1586362;73;1135;-64
2022/09/14 01:48:03;;;;;;;;;;;24.80;48.10;;;;;;1589283;74;776;-65
2022/09/14 01:50:09;;;;;;;;;;;24.90;48.10;;;;;;1580620;74;767;-66
2022/09/14 01:52:13;;;;;;;;;;;24.90;48.20;;;;;;1581624;74;1773;-66
2022/09/14 01:54:19;;;;;;;;;;;24.80;48.10;;;;;;1590143;74;1590;-66
2022/09/14 01:56:25;;;;;;;;;;;24.80;48.10;;;;;;1594194;73;1069;-65
2022/09/14 01:58:28;;;;;;;;;;;24.90;48.20;;;;;;1588364;74;1930;-65
2022/09/14 02:00:30;;;;;;;;;;;24.80;48.20;;;;;;1579359;74;731;-65
2022/09/14 02:02:33;;;;;;;;;;;24.90;48.40;;;;;;1587546;74;741;-66
2022/09/14 02:04:43;;;;;;;;;;;24.90;48.30;;;;;;1590290;73;1151;-64
2022/09/14 02:06:45;;;;;;;;;;;24.80;48.30;;;;;;1586456;74;1147;-65
2022/09/14 02:08:47;;;;;;;;;;;24.80;48.30;;;;;;1576859;74;821;-66
2022/09/14 02:10:49;;;;;;;;;;;24.80;48.30;;;;;;1583293;73;788;-66
2022/09/14 02:12:51;;;;;;;;;;;24.90;48.40;;;;;;1589388;74;775;-65
2022/09/14 02:14:53;;;;;;;;;;;24.80;48.30;;;;;;1591830;73;1126;-66
2022/09/14 02:16:55;;;;;;;;;;;24.80;48.30;;;;;;1587040;74;831;-64
2022/09/14 02:19:00;;;;;;;;;;;24.80;48.20;;;;;;1578495;75;1946;-65
2022/09/14 02:21:05;;;;;;;;;;;24.90;48.40;;;;;;1586425;74;1692;-65
2022/09/14 02:23:07;;;;;;;;;;;24.80;48.30;;;;;;1585728;74;764;-65
2022/09/14 02:25:09;;;;;;;;;;;24.80;48.20;;;;;;1588995;73;1155;-65
2022/09/14 02:27:11;;;;;;;;;;;24.80;48.30;;;;;;1600103;73;760;-64
2022/09/14 02:29:13;;;;;;;;;;;24.80;48.40;;;;;;1586043;74;773;-67
2022/09/14 02:31:16;;;;;;;;;;;24.80;48.40;;;;;;1586925;74;736;-67
2022/09/14 02:33:22;;;;;;;;;;;24.90;48.50;;;;;;1575818;74;725;-65
2022/09/14 02:35:26;;;;;;;;;;;24.80;48.40;;;;;;1584468;74;2279;-65
2022/09/14 02:37:39;;;;;;;;;;;24.80;48.40;;;;;;1586712;74;823;-65
2022/09/14 02:39:45;;;;;;;;;;;24.80;48.40;;;;;;1587297;74;2227;-65
2022/09/14 02:41:51;;;;;;;;;;;24.90;48.40;;;;;;1574058;74;753;-63
2022/09/14 02:43:54;;;;;;;;;;;24.80;48.30;;;;;;1583570;74;765;-65
2022/09/14 02:45:58;;;;;;;;;;;24.80;48.20;;;;;;1575611;74;1108;-65
2022/09/14 02:48:04;;;;;;;;;;;24.80;48.20;;;;;;1577220;74;2412;-67
2022/09/14 02:50:19;;;;;;;;;;;24.80;48.30;;;;;;1562784;74;792;-66
2022/09/14 02:52:29;;;;;;;;;;;24.80;48.30;;;;;;1577445;74;822;-65
2022/09/14 02:54:35;;;;;;;;;;;24.80;48.40;;;;;;1583702;73;1978;-66
2022/09/14 02:56:36;;;;;;;;;;;24.80;48.40;;;;;;1588016;74;795;-67
2022/09/14 02:58:40;;;;;;;;;;;24.80;48.40;;;;;;1574956;74;1931;-65
2022/09/14 03:00:43;;;;;;;;;;;24.80;48.40;;;;;;1582811;74;730;-64
2022/09/14 03:02:45;;;;;;;;;;;24.70;48.40;;;;;;1575723;74;697;-67
2022/09/14 03:04:47;;;;;;;;;;;24.80;48.50;;;;;;1589950;73;1145;-67
2022/09/14 03:06:49;;;;;;;;;;;24.70;48.40;;;;;;1568702;75;770;-65
2022/09/14 03:08:51;;;;;;;;;;;24.80;48.40;;;;;;1572130;75;811;-66
2022/09/14 03:10:53;;;;;;;;;;;24.80;48.50;;;;;;1575631;74;983;-71
2022/09/14 03:12:55;;;;;;;;;;;24.80;48.50;;;;;;1595447;73;652;-65
2022/09/14 03:14:57;;;;;;;;;;;24.80;48.40;;;;;;1577985;73;1088;-64
2022/09/14 03:16:58;;;;;;;;;;;24.80;48.60;;;;;;1598114;73;782;-65
2022/09/14 03:19:00;;;;;;;;;;;24.90;48.70;;;;;;1597324;73;1935;-66
2022/09/14 03:21:12;;;;;;;;;;;24.90;48.90;;;;;;1599818;72;740;-65
2022/09/14 03:23:14;;;;;;;;;;;24.90;48.90;;;;;;1573657;75;866;-65
2022/09/14 03:25:17;;;;;;;;;;;24.80;48.90;;;;;;1573075;73;1205;-65
2022/09/14 03:27:19;;;;;;;;;;;24.80;49.00;;;;;;1568950;75;727;-65
2022/09/14 03:29:21;;;;;;;;;;;24.80;49.00;;;;;;1604542;73;814;-66
2022/09/14 03:31:23;;;;;;;;;;;24.90;49.20;;;;;;1607144;73;738;-65
2022/09/14 03:33:25;;;;;;;;;;;24.80;49.10;;;;;;1610567;73;1729;-64
2022/09/14 03:35:31;;;;;;;;;;;24.90;49.20;;;;;;1608812;73;1244;-64
2022/09/14 03:37:35;;;;;;;;;;;24.80;49.10;;;;;;1571477;74;721;-65
2022/09/14 03:39:37;;;;;;;;;;;24.90;49.20;;;;;;1562448;74;1939;-67
2022/09/14 03:41:39;;;;;;;;;;;24.90;49.00;;;;;;1589489;74;828;-65
2022/09/14 03:43:41;;;;;;;;;;;25.00;49.10;;;;;;1578669;74;831;-67
2022/09/14 03:45:43;;;;;;;;;;;25.00;49.00;;;;;;1569588;74;1135;-66
2022/09/14 03:47:45;;;;;;;;;;;25.00;49.10;;;;;;1576585;75;805;-65
2022/09/14 03:49:47;;;;;;;;;;;24.90;49.10;;;;;;1561656;76;745;-65
2022/09/14 03:51:49;;;;;;;;;;;24.90;49.30;;;;;;1590060;73;808;-66
2022/09/14 03:53:51;;;;;;;;;;;24.90;49.30;;;;;;1594514;73;810;-64
2022/09/14 03:55:53;;;;;;;;;;;24.90;49.20;;;;;;1600836;73;1124;-65
2022/09/14 03:57:55;;;;;;;;;;;24.90;49.30;;;;;;1599030;72;749;-65
2022/09/14 03:59:57;;;;;;;;;;;24.80;49.30;;;;;;1552651;75;1943;-65
2022/09/14 04:01:59;;;;;;;;;;;24.80;49.30;;;;;;1602281;73;701;-66
2022/09/14 04:04:01;;;;;;;;;;;24.80;49.30;;;;;;1578573;74;711;-63
2022/09/14 04:06:06;;;;;;;;;;;24.80;49.30;;;;;;1583525;73;1128;-65
2022/09/14 04:08:08;;;;;;;;;;;24.70;49.30;;;;;;1583315;74;666;-64
2022/09/14 04:10:10;;;;;;;;;;;24.70;49.40;;;;;;1587990;74;829;-65
2022/09/14 04:12:12;;;;;;;;;;;24.80;49.40;;;;;;1571510;74;934;-65
2022/09/14 04:14:13;;;;;;;;;;;24.80;49.40;;;;;;1572445;74;709;-66
2022/09/14 04:16:16;;;;;;;;;;;24.70;49.40;;;;;;1567103;74;1112;-64
2022/09/14 04:18:17;;;;;;;;;;;24.70;49.40;;;;;;1571052;75;804;-64
2022/09/14 04:20:19;;;;;;;;;;;24.70;49.40;;;;;;1602697;73;1927;-65
2022/09/14 04:22:21;;;;;;;;;;;24.70;49.50;;;;;;1603686;73;805;-65
2022/09/14 04:24:23;;;;;;;;;;;24.70;49.40;;;;;;1601678;73;829;-64
2022/09/14 04:26:26;;;;;;;;;;;24.70;49.40;;;;;;1559989;73;1114;-65
2022/09/14 04:28:28;;;;;;;;;;;24.70;49.50;;;;;;1589568;74;1386;-65
2022/09/14 04:30:29;;;;;;;;;;;24.70;49.40;;;;;;1586543;74;726;-65
2022/09/14 04:32:31;;;;;;;;;;;24.70;49.40;;;;;;1611693;73;719;-64
2022/09/14 04:34:33;;;;;;;;;;;24.70;49.60;;;;;;1562725;75;1093;-65
2022/09/14 04:36:35;;;;;;;;;;;24.70;49.60;;;;;;1567278;75;769;-65
2022/09/14 04:38:37;;;;;;;;;;;24.70;49.60;;;;;;1571092;75;742;-64
2022/09/14 04:40:42;;;;;;;;;;;24.70;49.60;;;;;;1571993;74;1941;-65
2022/09/14 04:42:44;;;;;;;;;;;24.70;49.60;;;;;;1576332;74;692;-64
2022/09/14 04:44:46;;;;;;;;;;;24.60;49.50;;;;;;1581208;74;1143;-64
2022/09/14 04:46:48;;;;;;;;;;;24.70;49.70;;;;;;1568220;76;714;-65
2022/09/14 04:48:50;;;;;;;;;;;24.70;49.70;;;;;;1589945;73;775;-65
2022/09/14 04:50:52;;;;;;;;;;;24.70;49.60;;;;;;1596446;73;806;-65
2022/09/14 04:52:53;;;;;;;;;;;24.60;49.50;;;;;;1586586;73;787;-64
2022/09/14 04:54:56;;;;;;;;;;;24.60;49.50;;;;;;1589805;73;1128;-63
2022/09/14 04:56:58;;;;;;;;;;;24.70;49.70;;;;;;1594875;73;781;-65
2022/09/14 04:59:04;;;;;;;;;;;24.60;49.60;;;;;;1572758;74;1935;-64
2022/09/14 05:01:08;;;;;;;;;;;24.60;49.60;;;;;;1583914;74;1822;-64
2022/09/14 05:03:10;;;;;;;;;;;24.60;49.60;;;;;;1574594;74;1428;-62
2022/09/14 05:05:12;;;;;;;;;;;24.70;49.80;;;;;;1569692;74;1155;-65
2022/09/14 05:07:13;;;;;;;;;;;24.60;49.70;;;;;;1570102;76;740;-65
2022/09/14 05:09:16;;;;;;;;;;;24.70;49.80;;;;;;1574511;74;750;-65
2022/09/14 05:11:18;;;;;;;;;;;24.70;49.80;;;;;;1570890;76;784;-65
2022/09/14 05:13:20;;;;;;;;;;;24.70;49.80;;;;;;1572471;75;749;-65
2022/09/14 05:15:22;;;;;;;;;;;24.70;49.80;;;;;;1558445;73;2104;-65
2022/09/14 05:17:24;;;;;;;;;;;24.80;49.90;;;;;;1489801;78;836;-66
2022/09/14 05:19:26;;;;;;;;;;;24.80;49.70;;;;;;1511399;77;1913;-67
2022/09/14 05:21:29;;;;;;;;;;;24.80;49.60;;;;;;1516548;77;713;-66
2022/09/14 05:23:31;;;;;;;;;;;24.80;49.60;;;;;;1527813;77;825;-66
2022/09/14 05:25:32;;;;;;;;;;;24.70;49.60;;;;;;1564365;75;1541;-66
2022/09/14 05:27:34;;;;;;;;;;;24.70;49.70;;;;;;1570479;74;750;-66
2022/09/14 05:29:39;;;;;;;;;;;24.70;49.70;;;;;;1573250;75;766;-66
2022/09/14 05:31:40;;;;;;;;;;;24.60;49.70;;;;;;1570396;74;1681;-67
2022/09/14 05:33:42;;;;;;;;;;;24.70;49.80;;;;;;1569832;74;770;-67
2022/09/14 05:35:43;;;;;;;;;;;24.70;49.80;;;;;;1565326;74;1141;-66
2022/09/14 05:37:45;;;;;;;;;;;24.70;49.80;;;;;;1565933;74;834;-66
2022/09/14 05:39:47;;;;;;;;;;;24.70;49.90;;;;;;1579045;74;1922;-66
2022/09/14 05:41:49;;;;;;;;;;;24.70;49.90;;;;;;1565961;74;698;-66
2022/09/14 05:43:51;;;;;;;;;;;24.70;50.00;;;;;;1568767;74;742;-67
2022/09/14 05:45:53;;;;;;;;;;;24.70;50.00;;;;;;1572491;74;1140;-66
2022/09/14 05:47:55;;;;;;;;;;;24.70;50.00;;;;;;1566717;74;697;-66
2022/09/14 05:49:57;;;;;;;;;;;24.60;49.90;;;;;;1574452;74;782;-66
2022/09/14 05:51:59;;;;;;;;;;;24.70;50.00;;;;;;1562864;74;746;-67
2022/09/14 05:54:01;;;;;;;;;;;24.60;49.90;;;;;;1560605;74;736;-67
2022/09/14 05:56:07;;;;;;;;;;;24.60;49.90;;;;;;1560442;74;1125;-66
2022/09/14 05:58:09;;;;;;;;;;;24.60;49.90;;;;;;1562872;74;721;-67
2022/09/14 06:00:11;;;;;;;;;;;24.60;50.00;;;;;;1562339;74;1910;-66
2022/09/14 06:02:13;;;;;;;;;;;24.60;50.00;;;;;;1559089;74;823;-67
2022/09/14 06:04:15;;;;;;;;;;;24.60;50.00;;;;;;1563333;74;806;-66
2022/09/14 06:06:18;;;;;;;;;;;24.60;50.00;;;;;;1571335;74;1158;-66
2022/09/14 06:08:20;;;;;;;;;;;24.70;50.10;;;;;;1562688;74;779;-66
2022/09/14 06:10:22;;;;;;;;;;;24.60;50.00;;;;;;1566864;74;817;-67
2022/09/14 06:12:26;;;;;;;;;;;24.60;50.00;;;;;;1561301;74;768;-66
2022/09/14 06:14:27;;;;;;;;;;;24.60;50.10;;;;;;1566586;74;1719;-66
2022/09/14 06:16:29;;;;;;;;;;;24.60;50.00;;;;;;1569105;74;1131;-67
2022/09/14 06:18:32;;;;;;;;;;;24.60;50.00;;;;;;1562960;74;671;-66
2022/09/14 06:20:33;;;;;;;;;;;24.50;50.00;;;;;;1566832;75;1927;-66
2022/09/14 06:22:35;;;;;;;;;;;24.60;50.00;;;;;;1570302;74;727;-66
2022/09/14 06:24:37;;;;;;;;;;;24.60;50.00;;;;;;1565346;74;635;-66
2022/09/14 06:26:39;;;;;;;;;;;24.50;50.00;;;;;;1575709;74;1181;-67
2022/09/14 06:28:41;;;;;;;;;;;24.50;50.10;;;;;;1568382;74;804;-67
2022/09/14 06:30:43;;;;;;;;;;;24.60;50.00;;;;;;1562859;74;794;-66
2022/09/14 06:32:45;;;;;;;;;;;24.50;50.00;;;;;;1576952;74;758;-66
2022/09/14 06:34:47;;;;;;;;;;;24.50;50.00;;;;;;1563134;74;808;-66
2022/09/14 06:36:49;;;;;;;;;;;24.50;50.10;;;;;;1574680;74;1189;-66
2022/09/14 06:38:51;;;;;;;;;;;24.50;50.00;;;;;;1575711;74;789;-66
2022/09/14 06:40:55;;;;;;;;;;;24.60;50.00;;;;;;1568912;74;1930;-66
2022/09/14 06:43:01;;;;;;;;;;;24.50;50.00;;;;;;1562960;74;856;-66
2022/09/14 06:45:01;;;;;;;;;;;24.60;50.10;;;;;;1566751;74;2020;-67
2022/09/14 06:47:03;;;;;;;;;;;24.50;50.10;;;;;;1563222;74;834;-66
2022/09/14 06:49:06;;;;;;;;;;;24.50;50.10;;;;;;1567727;74;811;-66
2022/09/14 06:51:14;;;;;;;;;;;24.50;50.10;;;;;;1569154;75;771;-66
2022/09/14 06:53:16;;;;;;;;;;;24.50;50.10;;;;;;1562290;74;665;-67
2022/09/14 06:55:18;;;;;;;;;;;24.50;50.10;;;;;;1567168;74;1176;-66
2022/09/14 06:57:20;;;;;;;;;;;24.50;50.10;;;;;;1569100;74;735;-66
2022/09/14 06:59:22;;;;;;;;;;;24.50;50.20;;;;;;1572065;74;787;-67
2022/09/14 07:01:24;;;;;;;;;;;24.50;50.10;;;;;;1566426;74;1946;-66
2022/09/14 07:03:26;;;;;;;;;;;24.50;50.10;;;;;;1568590;74;818;-66
2022/09/14 07:05:29;;;;;;;;;;;24.50;50.10;;;;;;1569567;74;1157;-67
2022/09/14 07:07:31;;;;;;;;;;;24.50;50.10;;;;;;1564402;74;753;-67
2022/09/14 07:09:33;;;;;;;;;;;24.50;50.20;;;;;;1575406;74;759;-66
2022/09/14 07:11:35;;;;;;;;;;;24.50;50.20;;;;;;1576315;74;723;-67
2022/09/14 07:13:37;;;;;;;;;;;24.50;50.40;;;;;;1576940;74;715;-67
2022/09/14 07:15:39;;;;;;;;;;;24.50;50.30;;;;;;1575142;74;1099;-66
2022/09/14 07:17:42;;;;;;;;;;;24.50;50.40;;;;;;1574389;74;1495;-67
2022/09/14 07:19:44;;;;;;;;;;;24.50;50.40;;;;;;1569847;74;2108;-67
2022/09/14 07:21:47;;;;;;;;;;;24.60;50.50;;;;;;1576300;74;702;-67
2022/09/14 07:23:49;;;;;;;;;;;24.60;50.50;;;;;;1566740;74;792;-66
2022/09/14 07:25:52;;;;;;;;;;;24.50;50.50;;;;;;1557175;74;1122;-67
2022/09/14 07:27:54;;;;;;;;;;;24.60;50.50;;;;;;1562719;74;1833;-67
2022/09/14 07:29:56;;;;;;;;;;;24.50;50.60;;;;;;1566825;74;740;-66
2022/09/14 07:31:58;;;;;;;;;;;24.50;50.50;;;;;;1564983;74;792;-67
2022/09/14 07:34:01;;;;;;;;;;;24.50;50.70;;;;;;1562801;74;785;-67
2022/09/14 07:36:07;;;;;;;;;;;24.60;50.70;;;;;;1563593;74;1173;-66
2022/09/14 07:38:08;;;;;;;;;;;24.60;50.60;;;;;;1556939;74;792;-66
2022/09/14 07:40:11;;;;;;;;;;;24.60;50.60;;;;;;1561734;74;1943;-66
2022/09/14 07:42:13;;;;;;;;;;;24.70;50.70;;;;;;1567679;74;653;-67
2022/09/14 07:44:15;;;;;;;;;;;24.60;50.60;;;;;;1571005;74;766;-67
2022/09/14 07:46:17;;;;;;;;;;;24.60;50.50;;;;;;1571497;74;1177;-67
2022/09/14 07:48:19;;;;;;;;;;;24.60;50.60;;;;;;1569441;74;670;-67
2022/09/14 07:50:21;;;;;;;;;;;24.60;50.60;;;;;;1568791;74;737;-66
2022/09/14 07:52:23;;;;;;;;;;;24.70;50.80;;;;;;1564553;74;854;-66
2022/09/14 07:54:25;;;;;;;;;;;24.70;50.70;;;;;;1569001;74;778;-67
2022/09/14 07:56:27;;;;;;;;;;;24.70;50.70;;;;;;1573895;74;1150;-67
2022/09/14 07:58:29;;;;;;;;;;;24.80;50.70;;;;;;1569704;74;722;-66
2022/09/14 08:00:31;;;;;;;;;;;24.80;50.60;;;;;;1572877;74;1925;-65
2022/09/14 08:02:33;;;;;;;;;;;24.80;50.50;;;;;;1572368;74;920;-67
2022/09/14 08:04:35;;;;;;;;;;;24.90;50.40;;;;;;1565763;74;724;-67
2022/09/14 08:06:39;;;;;;;;;;;24.90;50.20;;;;;;1567411;74;1222;-66
2022/09/14 08:08:43;;;;;;;;;;;25.00;50.00;;;;;;1563453;74;997;-67
2022/09/14 08:10:45;;;;;;;;;;;25.00;50.00;;;;;;1569656;74;753;-67
2022/09/14 08:12:48;;;;;;;;;;;25.00;50.00;;;;;;1560108;74;1542;-66
2022/09/14 08:14:52;;;;;;;;;;;25.00;50.10;;;;;;1570118;74;1742;-67
2022/09/14 08:16:53;;;;;;;;;;;25.00;50.10;;;;;;1563580;74;786;-67
2022/09/14 08:18:56;;;;;;;;;;;25.00;50.10;;;;;;1574491;74;850;-67
2022/09/14 08:20:59;;;;;;;;;;;25.00;50.00;;;;;;1571438;74;1939;-67
2022/09/14 08:23:01;;;;;;;;;;;25.10;50.00;;;;;;1570963;74;1943;-67
2022/09/14 08:25:03;;;;;;;;;;;25.10;49.90;;;;;;1571708;74;1148;-67
2022/09/14 08:27:05;;;;;;;;;;;25.10;49.70;;;;;;1576204;75;876;-67
2022/09/14 08:29:07;;;;;;;;;;;25.20;49.60;;;;;;1574030;74;678;-66
2022/09/14 08:31:11;;;;;;;;;;;25.30;49.60;;;;;;1573125;74;792;-67
2022/09/14 08:33:13;;;;;;;;;;;25.30;49.40;;;;;;1570845;74;1836;-67
2022/09/14 08:35:14;;;;;;;;;;;25.30;49.50;;;;;;1578600;74;1166;-67
2022/09/14 08:37:16;;;;;;;;;;;25.40;49.50;;;;;;1569566;74;728;-66
2022/09/14 08:39:18;;;;;;;;;;;25.50;49.40;;;;;;1574184;74;781;-67
2022/09/14 08:41:31;;;;;;;;;;;25.50;49.40;;;;;;1576004;74;1937;-66
2022/09/14 08:43:33;;;;;;;;;;;25.50;49.20;;;;;;1567059;74;726;-67
2022/09/14 08:45:34;;;;;;;;;;;25.50;49.00;;;;;;1574186;75;1153;-67
2022/09/14 08:47:38;;;;;;;;;;;25.60;48.90;;;;;;1570436;74;734;-66
2022/09/14 08:49:45;;;;;;;;;;;25.50;48.90;;;;;;1564339;74;848;-67
2022/09/14 08:51:47;;;;;;;;;;;25.50;48.90;;;;;;1575585;74;704;-67
2022/09/14 08:53:49;;;;;;;;;;;25.50;48.80;;;;;;1564592;74;747;-66
2022/09/14 08:55:55;;;;;;;;;;;25.60;48.90;;;;;;1560977;74;1154;-66
2022/09/14 08:57:59;;;;;;;;;;;25.50;49.00;;;;;;1563497;74;678;-67
2022/09/14 09:00:08;;;;;;;;;;;25.60;49.00;;;;;;1562459;74;709;-67
2022/09/14 09:02:11;;;;;;;;;;;25.60;48.90;;;;;;1562080;74;1923;-67
2022/09/14 09:04:30;;;;;;;;;;;25.60;49.10;;;;;;1570917;74;780;-67
2022/09/14 09:06:39;;;;;;;;;;;25.50;49.10;;;;;;1561433;74;1163;-67
2022/09/14 09:08:43;;;;;;;;;;;25.50;49.10;;;;;;1551649;74;1678;-67
2022/09/14 09:10:45;;;;;;;;;;;25.50;48.90;;;;;;1572568;74;1610;-67
2022/09/14 09:12:47;;;;;;;;;;;25.50;48.90;;;;;;1561305;74;1043;-67
2022/09/14 09:14:53;;;;;;;;;;;25.50;48.90;;;;;;1562432;75;962;-67
2022/09/14 09:16:56;;;;;;;;;;;25.50;49.00;;;;;;1565126;74;1681;-67
2022/09/14 09:18:59;;;;;;;;;;;25.50;48.90;;;;;;1575102;74;792;-68
2022/09/14 09:21:02;;;;;;;;;;;25.40;48.90;;;;;;1567381;74;1917;-67
2022/09/14 09:23:06;;;;;;;;;;;25.50;48.70;;;;;;1571485;75;1369;-66
2022/09/14 09:25:15;;;;;;;;;;;25.40;48.90;;;;;;1573682;74;1196;-67
2022/09/14 09:27:17;;;;;;;;;;;25.50;48.80;;;;;;1537033;75;1053;-68
2022/09/14 09:29:19;;;;;;;;;;;25.50;48.80;;;;;;1572775;74;835;-67
2022/09/14 09:31:23;;;;;;;;;;;25.50;48.90;;;;;;1572491;75;822;-66
2022/09/14 09:33:25;;;;;;;;;;;25.40;49.00;;;;;;1576757;74;1033;-68
2022/09/14 09:35:27;;;;;;;;;;;25.50;49.20;;;;;;1575926;74;1202;-64
2022/09/14 09:37:29;;;;;;;;;;;25.40;49.40;;;;;;1573581;74;789;-68
2022/09/14 09:39:31;;;;;;;;;;;25.40;49.20;;;;;;1570198;74;706;-65
2022/09/14 09:41:51;;;;;;;;;;;25.40;49.40;;;;;;1577214;74;1918;-67
2022/09/14 09:44:00;;;;;;;;;;;25.50;50.10;;;;;;1563059;74;697;-67
2022/09/14 09:46:06;;;;;;;;;;;25.40;49.50;;;;;;1558981;74;1146;-70
2022/09/14 09:48:09;;;;;;;;;;;25.50;49.60;;;;;;1563622;74;876;-67
2022/09/14 09:50:15;;;;;;;;;;;25.50;49.30;;;;;;1568165;74;728;-67
2022/09/14 09:52:17;;;;;;;;;;;25.50;49.30;;;;;;1556023;74;726;-67
2022/09/14 09:54:29;;;;;;;;;;;25.50;49.00;;;;;;1563760;74;839;-67
2022/09/14 09:56:35;;;;;;;;;;;25.50;49.40;;;;;;1571962;74;1152;-67
2022/09/14 09:58:37;;;;;;;;;;;25.40;49.40;;;;;;1556175;74;1993;-66
2022/09/14 10:00:39;;;;;;;;;;;25.40;49.20;;;;;;1576865;74;689;-66
2022/09/14 10:02:41;;;;;;;;;;;25.50;49.00;;;;;;1566375;74;1936;-67
2022/09/14 10:04:47;;;;;;;;;;;25.50;48.70;;;;;;1552679;74;667;-67
2022/09/14 10:06:50;;;;;;;;;;;25.40;48.70;;;;;;1550436;74;1230;-66
2022/09/14 10:08:52;;;;;;;;;;;25.50;48.70;;;;;;1564376;74;798;-67
2022/09/14 10:10:54;;;;;;;;;;;25.40;48.90;;;;;;1569764;75;815;-67
2022/09/14 10:12:56;;;;;;;;;;;25.50;48.70;;;;;;1560792;74;825;-67
2022/09/14 10:15:05;;;;;;;;;;;25.50;48.60;;;;;;1555213;74;1256;-67
2022/09/14 10:17:09;;;;;;;;;;;25.50;48.50;;;;;;1576094;74;835;-67
2022/09/14 10:19:14;;;;;;;;;;;25.50;48.50;;;;;;1557282;74;1819;-67
2022/09/14 10:21:16;;;;;;;;;;;25.50;48.40;;;;;;1557669;74;1947;-67
2022/09/14 10:23:20;;;;;;;;;;;25.50;48.40;;;;;;1559848;74;844;-67
2022/09/14 10:25:23;;;;;;;;;;;25.60;48.40;;;;;;1552836;75;1150;-67
2022/09/14 10:27:38;;;;;;;;;;;25.50;48.30;;;;;;1572516;74;845;-67
2022/09/14 10:29:42;;;;;;;;;;;25.60;48.40;;;;;;1563377;74;765;-67
2022/09/14 10:31:44;;;;;;;;;;;25.50;48.40;;;;;;1576205;74;925;-66
2022/09/14 10:33:46;;;;;;;;;;;25.50;48.40;;;;;;1570497;74;747;-67
2022/09/14 10:35:58;;;;;;;;;;;25.50;48.50;;;;;;1568421;74;1186;-66
2022/09/14 10:38:03;;;;;;;;;;;25.50;48.60;;;;;;1576734;74;1860;-67
2022/09/14 10:40:06;;;;;;;;;;;25.50;48.50;;;;;;1569124;74;866;-67
2022/09/14 10:42:18;;;;;;;;;;;25.50;48.60;;;;;;1566462;75;1950;-66
2022/09/14 10:44:37;;;;;;;;;;;25.50;48.60;;;;;;1574463;74;726;-66
2022/09/14 10:46:41;;;;;;;;;;;25.40;48.60;;;;;;1572177;74;1998;-67
2022/09/14 10:48:47;;;;;;;;;;;25.50;48.50;;;;;;1562234;74;2346;-67
2022/09/14 10:50:53;;;;;;;;;;;25.50;48.50;;;;;;1565294;74;785;-66
2022/09/14 10:52:57;;;;;;;;;;;25.50;48.30;;;;;;1558513;74;789;-67
2022/09/14 10:55:18;;;;;;;;;;;25.60;48.10;;;;;;1561965;74;1147;-71
2022/09/14 10:57:22;;;;;;;;;;;25.60;48.10;;;;;;1575198;74;860;-66
2022/09/14 10:59:32;;;;;;;;;;;25.70;48.20;;;;;;1561205;74;1960;-67
2022/09/14 11:01:50;;;;;;;;;;;25.50;48.30;;;;;;1567183;74;1915;-67
2022/09/14 11:04:03;;;;;;;;;;;25.50;48.30;;;;;;1556776;74;754;-66
2022/09/14 11:06:09;;;;;;;;;;;25.60;48.20;;;;;;1564873;74;1905;-66
2022/09/14 11:08:13;;;;;;;;;;;25.60;48.10;;;;;;1561961;74;1922;-67
2022/09/14 11:10:31;;;;;;;;;;;25.60;48.10;;;;;;1557794;74;707;-65
2022/09/14 11:12:40;;;;;;;;;;;25.60;48.00;;;;;;1560333;75;718;-67
2022/09/14 11:14:53;;;;;;;;;;;25.60;48.50;;;;;;1574105;74;1879;-67
2022/09/14 11:16:56;;;;;;;;;;;25.60;48.10;;;;;;1586408;70;2109;-67
2022/09/14 11:19:12;;;;;;;;;;;25.60;48.20;;;;;;1577697;74;758;-68
2022/09/14 11:21:24;;;;;;;;;;;25.60;48.30;;;;;;1579301;74;1979;-65
2022/09/14 11:23:34;;;;;;;;;;;25.60;48.30;;;;;;1575949;74;624;-69
2022/09/14 11:25:37;;;;;;;;;;;25.60;48.20;;;;;;1583529;74;1210;-66
2022/09/14 11:27:41;;;;;;;;;;;25.50;48.50;;;;;;1609612;73;1960;-67
2022/09/14 11:29:48;;;;;;;;;;;25.50;48.70;;;;;;1607070;72;613;-69
2022/09/14 11:31:54;;;;;;;;;;;25.50;48.40;;;;;;1610262;72;740;-68
2022/09/14 11:33:57;;;;;;;;;;;25.60;48.20;;;;;;1603915;72;1401;-67
2022/09/14 11:36:10;;;;;;;;;;;25.70;48.00;;;;;;1590950;74;1418;-66
2022/09/14 11:38:21;;;;;;;;;;;25.60;48.00;;;;;;1568768;74;1241;-67
2022/09/14 11:40:24;;;;;;;;;;;25.70;47.90;;;;;;1608237;72;729;-66
2022/09/14 11:42:27;;;;;;;;;;;25.70;47.80;;;;;;1607439;72;1940;-66
2022/09/14 11:44:36;;;;;;;;;;;25.60;47.90;;;;;;1608289;72;744;-67
2022/09/14 11:46:40;;;;;;;;;;;25.50;47.80;;;;;;1605501;72;1176;-67
2022/09/14 11:48:55;;;;;;;;;;;25.60;48.20;;;;;;1608891;73;1767;-66
2022/09/14 11:50:59;;;;;;;;;;;25.60;47.90;;;;;;1607959;73;775;-64
2022/09/14 11:53:08;;;;;;;;;;;25.60;47.90;;;;;;1599291;73;1040;-67
2022/09/14 11:55:12;;;;;;;;;;;25.50;48.70;;;;;;1607468;72;809;-66
2022/09/14 11:57:16;;;;;;;;;;;25.60;48.20;;;;;;1607662;72;1772;-66
2022/09/14 11:59:34;;;;;;;;;;;25.60;48.10;;;;;;1610333;73;1502;-66
2022/09/14 12:01:37;;;;;;;;;;;25.60;47.80;;;;;;1606047;72;1920;-66
2022/09/14 12:03:46;;;;;;;;;;;25.70;47.80;;;;;;1607735;73;666;-66
2022/09/14 12:05:48;;;;;;;;;;;25.60;48.30;;;;;;1611063;72;1130;-66
2022/09/14 12:07:55;;;;;;;;;;;25.60;48.00;;;;;;1614224;73;772;-66
2022/09/14 12:09:58;;;;;;;;;;;25.70;47.90;;;;;;1607211;72;762;-66
2022/09/14 12:12:02;;;;;;;;;;;25.50;48.30;;;;;;1606437;73;1798;-68
2022/09/14 12:14:14;;;;;;;;;;;25.60;48.20;;;;;;1606075;73;743;-65
2022/09/14 12:16:16;;;;;;;;;;;25.60;48.40;;;;;;1607029;71;1143;-66
2022/09/14 12:18:23;;;;;;;;;;;25.50;48.50;;;;;;1615453;72;735;-66